Time;durP1;ratioP1;P1;durP2;ratioP2;P2;SDS_P1;SDS_P2;PMS_P1;PMS_P2;Temp;Humidity;BMP_temperature;BMP_pressure;BME280_temperature;BME280_humidity;BME280_pressure;Samples;Min_cycle;Max_cycle;Signal;HPM_P1;HPM_P2
2023/01/08 00:01:32;;;;;;;3.67;2.95;;;;;;;;;;5013955;28;20045;-67
2023/01/08 00:03:58;;;;;;;3.60;2.85;;;;;;;;;;5024736;28;20041;-67
2023/01/08 00:06:24;;;;;;;4.40;2.97;;;;;;;;;;5025869;28;20095;-67
2023/01/08 00:08:50;;;;;;;4.05;2.95;;;;;;;;;;5027468;28;20069;-67
2023/01/08 00:11:16;;;;;;;3.40;2.80;;;;;;;;;;5032796;28;20459;-67
2023/01/08 00:13:42;;;;;;;5.05;3.00;;;;;;;;;;5047469;28;20598;-67
2023/01/08 00:16:10;;;;;;;3.40;2.75;;;;;;;;;;5049773;28;20094;-67
2023/01/08 00:18:36;;;;;;;4.05;3.03;;;;;;;;;;5026275;28;20399;-67
2023/01/08 00:21:02;;;;;;;4.32;2.90;;;;;;;;;;5030225;28;20054;-67
2023/01/08 00:23:28;;;;;;;5.22;3.13;;;;;;;;;;5031858;28;20077;-67
2023/01/08 00:25:54;;;;;;;3.78;3.35;;;;;;;;;;5031000;28;20127;-67
2023/01/08 00:28:20;;;;;;;4.35;3.08;;;;;;;;;;5032090;28;20076;-67
2023/01/08 00:30:46;;;;;;;5.10;3.58;;;;;;;;;;5031809;28;20037;-67
2023/01/08 00:33:12;;;;;;;4.95;3.30;;;;;;;;;;5031094;28;20041;-67
2023/01/08 00:35:38;;;;;;;3.55;3.25;;;;;;;;;;5013789;28;20041;-67
2023/01/08 00:38:05;;;;;;;7.10;3.65;;;;;;;;;;5031759;28;20045;-67
2023/01/08 00:40:32;;;;;;;6.32;3.63;;;;;;;;;;5031049;28;20327;-67
2023/01/08 00:42:58;;;;;;;5.82;3.65;;;;;;;;;;5031445;28;20037;-67
2023/01/08 00:45:24;;;;;;;3.92;3.35;;;;;;;;;;5030239;28;20048;-67
2023/01/08 00:47:50;;;;;;;4.80;3.47;;;;;;;;;;5031066;28;20077;-67
2023/01/08 00:50:16;;;;;;;5.53;3.30;;;;;;;;;;5031482;28;20265;-67
2023/01/08 00:52:42;;;;;;;4.63;3.47;;;;;;;;;;5029921;28;20077;-67
2023/01/08 00:55:08;;;;;;;5.75;3.40;;;;;;;;;;5029483;28;20084;-67
2023/01/08 00:57:35;;;;;;;5.75;3.72;;;;;;;;;;5030999;28;20037;-67
2023/01/08 01:00:02;;;;;;;5.72;3.53;;;;;;;;;;5029809;28;20045;-67
2023/01/08 01:02:28;;;;;;;5.00;3.58;;;;;;;;;;5030475;28;20037;-67
2023/01/08 01:04:54;;;;;;;5.13;3.40;;;;;;;;;;5031369;28;20038;-67
2023/01/08 01:07:20;;;;;;;6.25;3.88;;;;;;;;;;5031059;28;20427;-67
2023/01/08 01:09:46;;;;;;;5.05;3.63;;;;;;;;;;5030721;28;20048;-67
2023/01/08 01:12:12;;;;;;;3.72;3.00;;;;;;;;;;5045343;28;20036;-67
2023/01/08 01:14:38;;;;;;;7.22;3.70;;;;;;;;;;5049645;28;20518;-67
2023/01/08 01:17:04;;;;;;;6.47;3.10;;;;;;;;;;5050406;28;20091;-67
2023/01/08 01:19:30;;;;;;;7.03;2.28;;;;;;;;;;5050746;28;20492;-67
2023/01/08 01:21:56;;;;;;;4.70;2.83;;;;;;;;;;5050321;28;20119;-67
2023/01/08 01:24:23;;;;;;;3.78;2.47;;;;;;;;;;5050925;28;20037;-67
2023/01/08 01:26:50;;;;;;;4.30;2.58;;;;;;;;;;5031085;28;20049;-67
2023/01/08 01:29:16;;;;;;;3.30;2.38;;;;;;;;;;5031043;28;20076;-67
2023/01/08 01:31:42;;;;;;;5.20;2.42;;;;;;;;;;5030398;28;20129;-67
2023/01/08 01:34:09;;;;;;;2.92;1.83;;;;;;;;;;5030234;28;20404;-67
2023/01/08 01:36:36;;;;;;;4.15;2.10;;;;;;;;;;5028963;28;20077;-67
2023/01/08 01:39:02;;;;;;;5.22;2.10;;;;;;;;;;5030715;28;20045;-67
2023/01/08 01:41:33;;;;;;;5.63;1.95;;;;;;;;;;5030202;28;20052;-67
2023/01/08 01:44:00;;;;;;;3.70;1.48;;;;;;;;;;5030553;28;20046;-67
2023/01/08 01:46:25;;;;;;;7.53;1.50;;;;;;;;;;5029555;28;20056;-67
2023/01/08 01:48:54;;;;;;;4.82;1.17;;;;;;;;;;5028674;28;20034;-67
2023/01/08 01:51:21;;;;;;;5.93;1.55;;;;;;;;;;5030600;28;20048;-67
2023/01/08 01:53:48;;;;;;;5.85;1.30;;;;;;;;;;5029929;28;20088;-67
2023/01/08 01:56:14;;;;;;;6.97;1.10;;;;;;;;;;5028623;28;20172;-67
2023/01/08 01:58:40;;;;;;;9.43;1.60;;;;;;;;;;5028708;28;20399;-67
2023/01/08 02:01:07;;;;;;;10.18;1.63;;;;;;;;;;5030248;28;20037;-67
2023/01/08 02:03:35;;;;;;;8.13;1.40;;;;;;;;;;5029399;28;20052;-67
2023/01/08 02:06:19;;;;;;;11.00;1.48;;;;;;;;;;5030318;28;20033;-67
2023/01/08 02:09:00;;;;;;;7.85;2.03;;;;;;;;;;5028291;28;20045;-67
2023/01/08 02:11:34;;;;;;;9.95;1.83;;;;;;;;;;5038316;28;20036;-67
2023/01/08 02:14:08;;;;;;;9.05;1.40;;;;;;;;;;5049610;28;20384;-67
2023/01/08 02:16:55;;;;;;;7.53;1.42;;;;;;;;;;5049566;28;20033;-67
2023/01/08 02:19:29;;;;;;;15.70;2.20;;;;;;;;;;5049366;28;20044;-67
2023/01/08 02:22:19;;;;;;;8.18;1.35;;;;;;;;;;5049994;28;20055;-67
2023/01/08 02:24:45;;;;;;;13.88;1.85;;;;;;;;;;5049107;28;20541;-67
2023/01/08 02:27:12;;;;;;;10.75;1.52;;;;;;;;;;5030214;28;20041;-67
2023/01/08 02:29:39;;;;;;;9.43;1.70;;;;;;;;;;5029662;28;20621;-67
2023/01/08 02:32:05;;;;;;;12.30;2.00;;;;;;;;;;5027618;28;20044;-67
2023/01/08 02:34:31;;;;;;;9.98;1.83;;;;;;;;;;5029013;28;20053;-67
2023/01/08 02:36:58;;;;;;;9.48;1.58;;;;;;;;;;5029376;28;20048;-67
2023/01/08 02:39:24;;;;;;;10.25;2.05;;;;;;;;;;5028603;28;20124;-67
2023/01/08 02:41:52;;;;;;;7.43;1.58;;;;;;;;;;5029583;28;20121;-67
2023/01/08 02:44:25;;;;;;;14.00;2.53;;;;;;;;;;5028900;28;20038;-67
2023/01/08 02:46:51;;;;;;;10.27;1.88;;;;;;;;;;5029197;28;20411;-67
2023/01/08 02:49:18;;;;;;;10.50;1.60;;;;;;;;;;5028006;28;20143;-67
2023/01/08 02:51:53;;;;;;;6.10;1.60;;;;;;;;;;5029439;28;20508;-67
2023/01/08 02:54:24;;;;;;;9.68;1.77;;;;;;;;;;5028682;28;20095;-67
2023/01/08 02:56:52;;;;;;;9.35;1.73;;;;;;;;;;5029265;28;20103;-67
2023/01/08 02:59:19;;;;;;;5.60;1.40;;;;;;;;;;5027315;28;20077;-67
2023/01/08 03:01:45;;;;;;;8.35;2.08;;;;;;;;;;5028876;28;20057;-67
2023/01/08 03:04:19;;;;;;;11.27;1.80;;;;;;;;;;5028910;28;20087;-67
2023/01/08 03:06:45;;;;;;;7.63;1.95;;;;;;;;;;5029212;28;20124;-67
2023/01/08 03:09:12;;;;;;;11.10;2.03;;;;;;;;;;5028658;28;20049;-67
2023/01/08 03:11:42;;;;;;;10.15;1.45;;;;;;;;;;5038931;28;20399;-67
2023/01/08 03:14:18;;;;;;;9.10;1.42;;;;;;;;;;5048522;28;20041;-67
2023/01/08 03:16:48;;;;;;;10.20;1.75;;;;;;;;;;5048581;28;20128;-66
2023/01/08 03:19:16;;;;;;;7.10;2.03;;;;;;;;;;5047207;28;20175;-66
2023/01/08 03:21:44;;;;;;;5.75;1.90;;;;;;;;;;5047344;28;20049;-66
2023/01/08 03:24:11;;;;;;;6.47;1.88;;;;;;;;;;5048560;28;20041;-66
2023/01/08 03:26:38;;;;;;;9.18;2.38;;;;;;;;;;5032855;28;20046;-67
2023/01/08 03:29:05;;;;;;;8.20;2.33;;;;;;;;;;5027813;28;20041;-67
2023/01/08 03:31:34;;;;;;;4.68;2.20;;;;;;;;;;5028507;28;20043;-67
2023/01/08 03:34:02;;;;;;;8.07;2.80;;;;;;;;;;5028919;28;20099;-67
2023/01/08 03:36:28;;;;;;;6.43;2.60;;;;;;;;;;5010798;28;20120;-67
2023/01/08 03:39:09;;;;;;;7.80;2.50;;;;;;;;;;5028528;28;20057;-67
2023/01/08 03:41:35;;;;;;;7.15;2.67;;;;;;;;;;5028712;28;20125;-67
2023/01/08 03:44:02;;;;;;;4.65;2.53;;;;;;;;;;5028852;28;20383;-67
2023/01/08 03:46:29;;;;;;;6.15;2.70;;;;;;;;;;5027174;28;20168;-67
2023/01/08 03:48:56;;;;;;;8.52;3.13;;;;;;;;;;5028722;28;20048;-67
2023/01/08 03:51:22;;;;;;;6.13;3.80;;;;;;;;;;5032119;28;20033;-67
2023/01/08 03:53:50;;;;;;;8.05;3.25;;;;;;;;;;5031329;28;20440;-67
2023/01/08 03:56:16;;;;;;;5.78;3.95;;;;;;;;;;5032327;28;20038;-67
2023/01/08 03:58:42;;;;;;;7.85;3.75;;;;;;;;;;5031268;28;20042;-67
2023/01/08 04:01:08;;;;;;;6.15;3.72;;;;;;;;;;5031955;28;20512;-67
2023/01/08 04:03:34;;;;;;;9.00;3.70;;;;;;;;;;5032550;28;20099;-66
2023/01/08 04:06:00;;;;;;;8.00;3.90;;;;;;;;;;5032400;28;20052;-66
2023/01/08 04:08:26;;;;;;;5.68;3.45;;;;;;;;;;5030513;28;20045;-66
2023/01/08 04:10:52;;;;;;;7.70;3.10;;;;;;;;;;5035791;28;20488;-66
2023/01/08 04:13:18;;;;;;;8.02;3.28;;;;;;;;;;5050509;28;20040;-66
2023/01/08 04:15:50;;;;;;;8.68;3.17;;;;;;;;;;5051931;28;20528;-67
2023/01/08 04:18:17;;;;;;;4.13;2.83;;;;;;;;;;5050404;28;20041;-67
2023/01/08 04:20:46;;;;;;;4.68;3.33;;;;;;;;;;5050392;28;20128;-67
2023/01/08 04:23:12;;;;;;;6.00;2.90;;;;;;;;;;5049664;28;20116;-67
2023/01/08 04:25:39;;;;;;;4.68;2.45;;;;;;;;;;5045142;28;20044;-67
2023/01/08 04:28:04;;;;;;;6.53;2.30;;;;;;;;;;5031710;28;20044;-67
2023/01/08 04:30:30;;;;;;;5.18;2.50;;;;;;;;;;5031603;28;20041;-67
2023/01/08 04:32:56;;;;;;;3.67;2.22;;;;;;;;;;5031736;28;20048;-67
2023/01/08 04:35:22;;;;;;;3.65;2.13;;;;;;;;;;5031859;28;20044;-67
2023/01/08 04:37:49;;;;;;;5.20;2.28;;;;;;;;;;5029829;28;20076;-67
2023/01/08 04:40:15;;;;;;;5.18;1.95;;;;;;;;;;5030202;28;20041;-67
2023/01/08 04:42:40;;;;;;;5.38;2.20;;;;;;;;;;5031527;28;20043;-67
2023/01/08 04:45:07;;;;;;;5.85;1.90;;;;;;;;;;5031632;28;20129;-67
2023/01/08 04:47:33;;;;;;;9.07;2.35;;;;;;;;;;5031511;28;20534;-67
2023/01/08 04:49:59;;;;;;;5.57;2.35;;;;;;;;;;5031620;28;20119;-67
2023/01/08 04:52:25;;;;;;;4.78;1.73;;;;;;;;;;5029238;28;20053;-67
2023/01/08 04:54:51;;;;;;;3.50;2.05;;;;;;;;;;5031107;28;20120;-67
2023/01/08 04:57:17;;;;;;;3.70;1.92;;;;;;;;;;5031458;28;20052;-67
2023/01/08 04:59:43;;;;;;;3.65;1.73;;;;;;;;;;5029551;28;20124;-67
2023/01/08 05:02:09;;;;;;;3.78;1.80;;;;;;;;;;5030912;28;20041;-67
2023/01/08 05:04:35;;;;;;;4.47;2.03;;;;;;;;;;5031195;28;20498;-67
2023/01/08 05:07:01;;;;;;;3.72;1.95;;;;;;;;;;5030731;28;20152;-67
2023/01/08 05:09:27;;;;;;;3.08;1.92;;;;;;;;;;5031171;28;20069;-67
2023/01/08 05:11:53;;;;;;;5.20;1.70;;;;;;;;;;5043011;28;20120;-67
2023/01/08 05:14:19;;;;;;;5.68;2.00;;;;;;;;;;5048922;28;20053;-67
2023/01/08 05:16:45;;;;;;;5.55;1.85;;;;;;;;;;5049857;28;20041;-67
2023/01/08 05:19:10;;;;;;;2.35;1.73;;;;;;;;;;5049133;28;20041;-67
2023/01/08 05:21:37;;;;;;;8.48;2.25;;;;;;;;;;5050275;28;20057;-67
2023/01/08 05:24:03;;;;;;;5.80;2.00;;;;;;;;;;5050616;28;20036;-67
2023/01/08 05:26:29;;;;;;;4.45;2.10;;;;;;;;;;5037599;28;20083;-67
2023/01/08 05:28:55;;;;;;;5.32;2.10;;;;;;;;;;5029180;28;20524;-67
2023/01/08 05:31:21;;;;;;;4.40;1.90;;;;;;;;;;5030874;28;20371;-67
2023/01/08 05:33:47;;;;;;;5.60;1.80;;;;;;;;;;5030473;28;20396;-67
2023/01/08 05:36:13;;;;;;;3.75;2.10;;;;;;;;;;5030227;28;20041;-67
2023/01/08 05:38:39;;;;;;;4.07;2.25;;;;;;;;;;5030203;28;20077;-67
2023/01/08 05:41:05;;;;;;;7.30;2.20;;;;;;;;;;5030300;28;20041;-67
2023/01/08 05:43:32;;;;;;;7.00;2.45;;;;;;;;;;5029979;28;20057;-67
2023/01/08 05:45:58;;;;;;;3.70;2.40;;;;;;;;;;5030123;28;20041;-67
2023/01/08 05:48:25;;;;;;;3.90;2.50;;;;;;;;;;5030247;28;20261;-66
2023/01/08 05:50:51;;;;;;;4.97;2.67;;;;;;;;;;5029840;28;20052;-66
2023/01/08 05:53:17;;;;;;;5.35;2.97;;;;;;;;;;5029914;28;20076;-66
2023/01/08 05:55:43;;;;;;;7.38;3.10;;;;;;;;;;5030054;28;20041;-66
2023/01/08 05:58:10;;;;;;;5.35;2.85;;;;;;;;;;5030340;28;20503;-66
2023/01/08 06:00:37;;;;;;;5.35;2.90;;;;;;;;;;5029898;28;20483;-66
2023/01/08 06:03:03;;;;;;;8.23;3.10;;;;;;;;;;5030133;28;20049;-66
2023/01/08 06:05:32;;;;;;;7.07;3.42;;;;;;;;;;5029900;28;20048;-66
2023/01/08 06:07:59;;;;;;;6.30;2.95;;;;;;;;;;5029682;28;20364;-66
2023/01/08 06:10:25;;;;;;;7.00;3.00;;;;;;;;;;5029874;28;20133;-66
2023/01/08 06:12:51;;;;;;;5.68;2.97;;;;;;;;;;5048795;28;20420;-66
2023/01/08 06:15:17;;;;;;;10.02;2.97;;;;;;;;;;5049342;28;20037;-66
2023/01/08 06:17:43;;;;;;;6.25;2.60;;;;;;;;;;5049828;28;20036;-66
2023/01/08 06:20:10;;;;;;;6.50;2.70;;;;;;;;;;5049321;28;20506;-66
2023/01/08 06:22:36;;;;;;;5.97;2.63;;;;;;;;;;5049087;28;20060;-66
2023/01/08 06:25:02;;;;;;;8.23;2.33;;;;;;;;;;5046354;28;20045;-66
2023/01/08 06:27:29;;;;;;;4.95;2.60;;;;;;;;;;5029787;28;20136;-66
2023/01/08 06:29:55;;;;;;;6.63;2.15;;;;;;;;;;5029062;28;20041;-66
2023/01/08 06:32:21;;;;;;;4.50;2.15;;;;;;;;;;5027789;28;20055;-66
2023/01/08 06:34:47;;;;;;;6.93;2.20;;;;;;;;;;5029812;28;20037;-66
2023/01/08 06:37:13;;;;;;;5.50;1.77;;;;;;;;;;5029056;28;20107;-66
2023/01/08 06:39:39;;;;;;;9.32;2.00;;;;;;;;;;5029594;28;20048;-66
2023/01/08 06:42:05;;;;;;;6.57;1.98;;;;;;;;;;5029236;28;20037;-66
2023/01/08 06:44:31;;;;;;;7.40;2.10;;;;;;;;;;5029298;28;20550;-66
2023/01/08 06:46:57;;;;;;;6.57;1.90;;;;;;;;;;5029367;28;20117;-66
2023/01/08 06:49:23;;;;;;;5.45;1.90;;;;;;;;;;5029261;28;20132;-66
2023/01/08 06:51:49;;;;;;;6.90;1.67;;;;;;;;;;5027334;28;20037;-66
2023/01/08 06:54:15;;;;;;;3.22;1.52;;;;;;;;;;5028050;28;20400;-66
2023/01/08 06:56:41;;;;;;;6.40;1.70;;;;;;;;;;5027574;28;20038;-66
2023/01/08 06:59:07;;;;;;;4.93;1.80;;;;;;;;;;5028687;28;20407;-66
2023/01/08 07:01:33;;;;;;;6.93;1.40;;;;;;;;;;5027334;28;20045;-66
2023/01/08 07:03:58;;;;;;;9.23;1.70;;;;;;;;;;5029034;28;20468;-66
2023/01/08 07:06:24;;;;;;;3.47;1.55;;;;;;;;;;5028441;28;20322;-66
2023/01/08 07:08:50;;;;;;;6.65;2.10;;;;;;;;;;5027756;28;20056;-66
2023/01/08 07:11:16;;;;;;;4.03;1.30;;;;;;;;;;5034273;28;20082;-67
2023/01/08 07:13:42;;;;;;;3.72;1.42;;;;;;;;;;5046861;28;20053;-67
2023/01/08 07:16:09;;;;;;;6.40;1.40;;;;;;;;;;5047443;28;20617;-67
2023/01/08 07:18:35;;;;;;;6.80;1.88;;;;;;;;;;5048785;28;20695;-67
2023/01/08 07:21:02;;;;;;;6.55;1.70;;;;;;;;;;5048062;28;20076;-67
2023/01/08 07:23:28;;;;;;;5.85;1.50;;;;;;;;;;5048624;28;20084;-67
2023/01/08 07:25:54;;;;;;;8.35;1.83;;;;;;;;;;5044167;28;20094;-67
2023/01/08 07:28:20;;;;;;;4.13;1.75;;;;;;;;;;5032664;28;20539;-67
2023/01/08 07:30:46;;;;;;;9.38;1.90;;;;;;;;;;5031580;28;20065;-67
2023/01/08 07:33:12;;;;;;;6.93;1.60;;;;;;;;;;5032529;28;20044;-67
2023/01/08 07:35:38;;;;;;;5.60;1.70;;;;;;;;;;5032506;28;20041;-67
2023/01/08 07:38:04;;;;;;;8.52;1.90;;;;;;;;;;5032829;28;20049;-67
2023/01/08 07:40:30;;;;;;;8.57;2.15;;;;;;;;;;5032867;28;20042;-67
2023/01/08 07:43:00;;;;;;;6.13;2.30;;;;;;;;;;5032180;28;20034;-67
2023/01/08 07:45:30;;;;;;;6.30;2.08;;;;;;;;;;5032907;28;20034;-67
2023/01/08 07:47:57;;;;;;;8.18;1.80;;;;;;;;;;5032586;28;20037;-67
2023/01/08 07:50:23;;;;;;;6.80;2.40;;;;;;;;;;5032586;28;20103;-67
2023/01/08 07:52:49;;;;;;;10.30;2.20;;;;;;;;;;5032358;28;20442;-67
2023/01/08 07:55:15;;;;;;;5.13;1.88;;;;;;;;;;5032795;28;20055;-67
2023/01/08 07:57:41;;;;;;;8.23;2.20;;;;;;;;;;5031961;28;20041;-67
2023/01/08 08:00:08;;;;;;;6.53;2.20;;;;;;;;;;5032405;28;20111;-67
2023/01/08 08:02:34;;;;;;;6.22;2.50;;;;;;;;;;5032183;28;20041;-67
2023/01/08 08:05:00;;;;;;;6.47;2.30;;;;;;;;;;5032041;28;20113;-67
2023/01/08 08:07:26;;;;;;;8.02;2.15;;;;;;;;;;5032372;28;20041;-67
2023/01/08 08:09:52;;;;;;;8.73;2.03;;;;;;;;;;5032222;28;20491;-67
2023/01/08 08:12:18;;;;;;;8.57;1.77;;;;;;;;;;5046960;28;20045;-67
2023/01/08 08:14:44;;;;;;;5.95;2.03;;;;;;;;;;5052002;28;20047;-66
2023/01/08 08:17:10;;;;;;;7.90;2.13;;;;;;;;;;5052185;28;20131;-66
2023/01/08 08:19:36;;;;;;;7.22;2.30;;;;;;;;;;5051338;28;20575;-66
2023/01/08 08:22:02;;;;;;;6.47;2.17;;;;;;;;;;5052017;28;20116;-66
2023/01/08 08:24:28;;;;;;;11.50;2.65;;;;;;;;;;5050176;28;20044;-66
2023/01/08 08:26:54;;;;;;;6.07;2.03;;;;;;;;;;5034463;28;20474;-66
2023/01/08 08:29:20;;;;;;;5.93;2.13;;;;;;;;;;5031909;28;20052;-66
2023/01/08 08:31:46;;;;;;;9.02;2.08;;;;;;;;;;5031974;28;20056;-66
2023/01/08 08:34:12;;;;;;;7.10;2.42;;;;;;;;;;5031124;28;20038;-66
2023/01/08 08:36:38;;;;;;;6.20;2.30;;;;;;;;;;5031228;28;20051;-66
2023/01/08 08:39:04;;;;;;;5.75;1.65;;;;;;;;;;5030078;28;20048;-66
2023/01/08 08:41:30;;;;;;;7.78;1.77;;;;;;;;;;5031588;28;20110;-66
2023/01/08 08:43:56;;;;;;;9.77;1.83;;;;;;;;;;5031567;28;20064;-66
2023/01/08 08:46:24;;;;;;;6.97;2.10;;;;;;;;;;5031653;28;20041;-66
2023/01/08 08:48:50;;;;;;;5.78;1.85;;;;;;;;;;5029564;28;20467;-66
2023/01/08 08:51:15;;;;;;;8.82;2.22;;;;;;;;;;5031347;28;20045;-67
2023/01/08 08:53:41;;;;;;;5.18;2.05;;;;;;;;;;5013402;28;20509;-67
2023/01/08 08:56:07;;;;;;;8.88;2.55;;;;;;;;;;5030952;28;20045;-67
2023/01/08 08:58:33;;;;;;;7.80;1.73;;;;;;;;;;5031310;28;20052;-67
2023/01/08 09:01:03;;;;;;;8.63;2.08;;;;;;;;;;5029608;28;20045;-66
2023/01/08 09:03:29;;;;;;;7.32;1.70;;;;;;;;;;5030754;28;20048;-66
2023/01/08 09:05:55;;;;;;;4.90;2.00;;;;;;;;;;5031411;28;20476;-66
2023/01/08 09:08:21;;;;;;;8.90;2.20;;;;;;;;;;5029699;28;20045;-66
2023/01/08 09:10:47;;;;;;;4.18;1.80;;;;;;;;;;5031932;28;20137;-66
2023/01/08 09:13:13;;;;;;;6.40;1.83;;;;;;;;;;5050857;28;20091;-66
2023/01/08 09:15:39;;;;;;;8.43;1.50;;;;;;;;;;5050780;28;20087;-66
2023/01/08 09:18:05;;;;;;;6.85;1.90;;;;;;;;;;5050593;28;20055;-66
2023/01/08 09:20:31;;;;;;;8.43;1.83;;;;;;;;;;5050554;28;20103;-66
2023/01/08 09:22:58;;;;;;;4.70;1.83;;;;;;;;;;5050707;28;20036;-66
2023/01/08 09:25:24;;;;;;;4.68;1.38;;;;;;;;;;5046171;28;20091;-66
2023/01/08 09:27:58;;;;;;;7.53;1.77;;;;;;;;;;5030260;28;20033;-66
2023/01/08 09:30:24;;;;;;;5.25;1.60;;;;;;;;;;5029534;28;20094;-67
2023/01/08 09:32:50;;;;;;;6.93;1.63;;;;;;;;;;5028998;28;20492;-66
2023/01/08 09:35:16;;;;;;;7.65;1.48;;;;;;;;;;5031057;28;20406;-66
2023/01/08 09:37:42;;;;;;;7.38;1.73;;;;;;;;;;5030626;28;20041;-66
2023/01/08 09:40:10;;;;;;;4.47;1.80;;;;;;;;;;5030747;28;20514;-66
2023/01/08 09:42:37;;;;;;;5.72;1.60;;;;;;;;;;5030217;28;20045;-66
2023/01/08 09:45:03;;;;;;;4.38;1.60;;;;;;;;;;5030705;28;20033;-66
2023/01/08 09:47:36;;;;;;;9.40;1.70;;;;;;;;;;5029424;28;20052;-66
2023/01/08 09:50:04;;;;;;;7.18;1.45;;;;;;;;;;5030275;28;20037;-66
2023/01/08 09:52:31;;;;;;;5.95;1.60;;;;;;;;;;5029035;28;20439;-66
2023/01/08 09:54:57;;;;;;;7.38;1.25;;;;;;;;;;5030463;28;20041;-66
2023/01/08 09:57:23;;;;;;;7.28;1.45;;;;;;;;;;5028188;28;20045;-66
2023/01/08 09:59:49;;;;;;;10.93;1.73;;;;;;;;;;5012209;28;20041;-66
2023/01/08 10:02:23;;;;;;;9.57;1.27;;;;;;;;;;5029856;28;20400;-67
2023/01/08 10:04:52;;;;;;;7.97;1.30;;;;;;;;;;5029941;28;20149;-67
2023/01/08 10:07:23;;;;;;;9.50;1.67;;;;;;;;;;5029990;28;20447;-67
2023/01/08 10:09:50;;;;;;;9.48;1.90;;;;;;;;;;5028635;28;20045;-67
2023/01/08 10:12:18;;;;;;;9.95;1.90;;;;;;;;;;5044840;28;20139;-67
2023/01/08 10:14:48;;;;;;;12.00;1.92;;;;;;;;;;5048315;28;20420;-67
2023/01/08 10:17:20;;;;;;;8.35;1.95;;;;;;;;;;5049218;28;20545;-67
2023/01/08 10:19:46;;;;;;;10.05;1.88;;;;;;;;;;5049563;28;20102;-67
2023/01/08 10:22:14;;;;;;;10.57;1.63;;;;;;;;;;5048173;28;20064;-67
2023/01/08 10:24:42;;;;;;;10.40;3.13;;;;;;;;;;5049291;28;20033;-67
2023/01/08 10:27:14;;;;;;;9.15;1.95;;;;;;;;;;5030742;28;20415;-67
2023/01/08 10:29:40;;;;;;;6.85;1.73;;;;;;;;;;5029692;28;20159;-67
2023/01/08 10:32:17;;;;;;;10.57;2.00;;;;;;;;;;5011543;28;20055;-67
2023/01/08 10:34:50;;;;;;;9.93;2.30;;;;;;;;;;5028178;28;20084;-67
2023/01/08 10:37:16;;;;;;;7.78;1.58;;;;;;;;;;5028029;28;20147;-67
2023/01/08 10:39:46;;;;;;;9.77;1.65;;;;;;;;;;5028769;28;20128;-67
2023/01/08 10:42:13;;;;;;;12.25;2.10;;;;;;;;;;5029497;28;20459;-67
2023/01/08 10:44:39;;;;;;;11.48;1.88;;;;;;;;;;5029129;28;20187;-67
2023/01/08 10:47:05;;;;;;;9.82;2.05;;;;;;;;;;5029188;28;20113;-67
2023/01/08 10:49:38;;;;;;;11.80;1.90;;;;;;;;;;5029084;28;20041;-67
2023/01/08 10:52:04;;;;;;;12.45;2.25;;;;;;;;;;5029375;28;20502;-67
2023/01/08 10:54:40;;;;;;;10.98;1.77;;;;;;;;;;5028933;28;20495;-67
2023/01/08 10:57:25;;;;;;;13.13;2.00;;;;;;;;;;5029290;28;20045;-67
2023/01/08 10:59:51;;;;;;;14.43;2.35;;;;;;;;;;5028851;28;20226;-67
2023/01/08 11:02:36;;;;;;;14.52;2.22;;;;;;;;;;5027290;28;20484;-67
2023/01/08 11:05:04;;;;;;;10.40;1.95;;;;;;;;;;5028819;28;20065;-67
2023/01/08 11:07:34;;;;;;;14.85;2.70;;;;;;;;;;5028037;28;20083;-67
2023/01/08 11:10:00;;;;;;;14.38;2.22;;;;;;;;;;5028473;28;20049;-67
2023/01/08 11:12:39;;;;;;;8.80;1.77;;;;;;;;;;5045169;28;20048;-67
2023/01/08 11:15:07;;;;;;;7.53;1.88;;;;;;;;;;5048643;28;20725;-67
2023/01/08 11:17:33;;;;;;;10.65;1.80;;;;;;;;;;5048937;28;20502;-67
2023/01/08 11:20:06;;;;;;;15.20;2.10;;;;;;;;;;5048365;28;20132;-67
2023/01/08 11:22:33;;;;;;;7.90;1.67;;;;;;;;;;5048686;28;20045;-67
2023/01/08 11:24:59;;;;;;;12.13;2.33;;;;;;;;;;5047148;28;20434;-67
2023/01/08 11:27:34;;;;;;;13.82;2.72;;;;;;;;;;5029184;28;20033;-67
2023/01/08 11:30:15;;;;;;;9.77;2.58;;;;;;;;;;5028708;28;20052;-67
2023/01/08 11:32:45;;;;;;;9.65;2.25;;;;;;;;;;5028578;28;20133;-67
2023/01/08 11:35:13;;;;;;;9.73;2.03;;;;;;;;;;5028890;28;20053;-67
2023/01/08 11:37:40;;;;;;;7.25;1.83;;;;;;;;;;5027214;28;20049;-67
2023/01/08 11:40:14;;;;;;;10.68;2.08;;;;;;;;;;5028152;28;20080;-67
2023/01/08 11:42:58;;;;;;;15.30;2.45;;;;;;;;;;5028744;28;20562;-67
2023/01/08 11:45:43;;;;;;;9.50;1.80;;;;;;;;;;5028641;28;20037;-67
2023/01/08 11:48:18;;;;;;;9.82;2.25;;;;;;;;;;5028553;28;20151;-67
2023/01/08 11:50:58;;;;;;;10.85;2.60;;;;;;;;;;5027181;28;20042;-67
2023/01/08 11:53:29;;;;;;;12.57;2.47;;;;;;;;;;5027139;28;20037;-67
2023/01/08 11:56:10;;;;;;;15.50;2.70;;;;;;;;;;5028915;28;20037;-67
2023/01/08 11:58:36;;;;;;;15.82;2.85;;;;;;;;;;5028771;28;20053;-67
2023/01/08 12:01:21;;;;;;;8.50;1.75;;;;;;;;;;5028051;28;20532;-67
2023/01/08 12:03:51;;;;;;;12.20;2.08;;;;;;;;;;5026935;28;20389;-67
2023/01/08 12:06:36;;;;;;;8.40;1.70;;;;;;;;;;5028480;28;20037;-67
2023/01/08 12:09:07;;;;;;;9.90;2.15;;;;;;;;;;5028201;28;20044;-67
2023/01/08 12:11:40;;;;;;;9.93;2.05;;;;;;;;;;5039093;28;20033;-67
2023/01/08 12:14:06;;;;;;;17.17;2.30;;;;;;;;;;5050973;28;20499;-67
2023/01/08 12:16:51;;;;;;;8.35;2.10;;;;;;;;;;5050568;28;20051;-67
2023/01/08 12:19:24;;;;;;;9.80;1.95;;;;;;;;;;5051792;28;20041;-66
2023/01/08 12:22:05;;;;;;;12.70;2.47;;;;;;;;;;5051823;28;20049;-66
2023/01/08 12:24:34;;;;;;;7.75;2.20;;;;;;;;;;5051427;28;20033;-66
2023/01/08 12:27:12;;;;;;;15.50;2.20;;;;;;;;;;5033876;28;20037;-66
2023/01/08 12:30:00;;;;;;;12.32;2.20;;;;;;;;;;5031879;28;20492;-66
2023/01/08 12:33:01;;;;;;;9.77;1.77;;;;;;;;;;5031080;28;20050;-66
2023/01/08 12:35:35;;;;;;;11.13;2.47;;;;;;;;;;4989458;28;20042;-66
2023/01/08 12:38:10;;;;;;;9.98;2.35;;;;;;;;;;5025042;28;20049;-66
2023/01/08 12:40:39;;;;;;;14.05;2.40;;;;;;;;;;5031397;28;20045;-66
2023/01/08 12:43:14;;;;;;;12.50;2.70;;;;;;;;;;5030294;28;20044;-66
2023/01/08 12:45:42;;;;;;;9.70;2.13;;;;;;;;;;5029958;28;20037;-67
2023/01/08 12:48:12;;;;;;;10.43;2.42;;;;;;;;;;5031028;28;20072;-66
2023/01/08 12:50:41;;;;;;;10.13;2.00;;;;;;;;;;5030043;28;20049;-66
2023/01/08 12:53:07;;;;;;;10.77;2.28;;;;;;;;;;5029309;28;20128;-66
2023/01/08 12:55:46;;;;;;;10.25;2.45;;;;;;;;;;5031549;28;20540;-66
2023/01/08 12:58:21;;;;;;;12.82;2.30;;;;;;;;;;5030324;28;20064;-66
2023/01/08 13:01:13;;;;;;;9.73;1.77;;;;;;;;;;5029496;28;20037;-66
2023/01/08 13:03:39;;;;;;;8.60;1.92;;;;;;;;;;5028946;28;20054;-66
2023/01/08 13:06:07;;;;;;;8.10;2.97;;;;;;;;;;5030156;28;20060;-66
2023/01/08 13:08:34;;;;;;;11.48;2.78;;;;;;;;;;5030734;28;20063;-66
2023/01/08 13:11:01;;;;;;;7.15;1.90;;;;;;;;;;5034304;28;20037;-66
2023/01/08 13:13:31;;;;;;;10.50;2.10;;;;;;;;;;5050539;28;20067;-66
2023/01/08 13:16:07;;;;;;;8.35;1.83;;;;;;;;;;5049354;28;20040;-66
2023/01/08 13:18:33;;;;;;;10.02;1.90;;;;;;;;;;5050469;28;20048;-66
2023/01/08 13:21:00;;;;;;;12.55;2.30;;;;;;;;;;5050467;28;20053;-66
2023/01/08 13:23:28;;;;;;;7.38;2.20;;;;;;;;;;5050108;28;20040;-66
2023/01/08 13:25:58;;;;;;;10.15;3.53;;;;;;;;;;5042042;28;20125;-66
2023/01/08 13:28:27;;;;;;;8.98;2.17;;;;;;;;;;5030774;28;20077;-66
2023/01/08 13:30:57;;;;;;;10.60;2.05;;;;;;;;;;5030567;28;20045;-66
2023/01/08 13:33:23;;;;;;;7.93;2.75;;;;;;;;;;5029169;28;20077;-66
2023/01/08 13:35:49;;;;;;;8.57;1.95;;;;;;;;;;5030452;28;20064;-66
2023/01/08 13:38:16;;;;;;;9.88;2.95;;;;;;;;;;5030066;28;20092;-67
2023/01/08 13:40:45;;;;;;;8.27;2.40;;;;;;;;;;5029064;28;20272;-67
2023/01/08 13:43:19;;;;;;;10.18;2.33;;;;;;;;;;5030128;28;20045;-67
2023/01/08 13:45:51;;;;;;;8.65;2.50;;;;;;;;;;5029966;28;20050;-67
2023/01/08 13:48:17;;;;;;;;;;;;;;;;;;5030790;28;20128;-67
2023/01/08 13:50:45;;;;;;;4.68;1.67;;;;;;;;;;5030529;28;20020;-67
2023/01/08 13:53:13;;;;;;;4.57;1.40;;;;;;;;;;5029846;28;20045;-67
2023/01/08 13:55:41;;;;;;;7.47;2.03;;;;;;;;;;5030325;28;20069;-67
2023/01/08 13:58:09;;;;;;;5.13;2.25;;;;;;;;;;5030283;28;20565;-67
2023/01/08 14:00:44;;;;;;;8.55;2.22;;;;;;;;;;5030091;28;20045;-67
2023/01/08 14:03:22;;;;;;;8.10;3.20;;;;;;;;;;5030200;28;20392;-67
2023/01/08 14:05:50;;;;;;;5.65;2.30;;;;;;;;;;5028933;28;20605;-66
2023/01/08 14:08:26;;;;;;;4.88;1.90;;;;;;;;;;5028306;28;20052;-66
2023/01/08 14:10:52;;;;;;;6.30;1.85;;;;;;;;;;5031589;28;20084;-67
2023/01/08 14:13:21;;;;;;;5.65;1.70;;;;;;;;;;5049466;28;20131;-66
2023/01/08 14:15:47;;;;;;;8.07;1.90;;;;;;;;;;5049409;28;20029;-66
2023/01/08 14:18:13;;;;;;;6.88;1.67;;;;;;;;;;5048543;28;20087;-66
2023/01/08 14:20:41;;;;;;;6.82;2.15;;;;;;;;;;5047979;28;20057;-66
2023/01/08 14:23:11;;;;;;;7.00;2.67;;;;;;;;;;5049345;28;20045;-66
2023/01/08 14:25:37;;;;;;;6.60;2.92;;;;;;;;;;5043297;28;20088;-66
2023/01/08 14:28:04;;;;;;;8.32;2.63;;;;;;;;;;5028281;28;20041;-66
2023/01/08 14:30:31;;;;;;;4.63;2.17;;;;;;;;;;5029215;28;20516;-66
2023/01/08 14:32:58;;;;;;;3.88;1.40;;;;;;;;;;5029405;28;20103;-66
2023/01/08 14:35:32;;;;;;;6.22;1.65;;;;;;;;;;5028927;28;20095;-66
2023/01/08 14:37:58;;;;;;;6.13;1.60;;;;;;;;;;5028075;28;20053;-66
2023/01/08 14:40:32;;;;;;;5.07;1.50;;;;;;;;;;5029235;28;20049;-66
2023/01/08 14:43:01;;;;;;;8.68;7.82;;;;;;;;;;5027834;28;20042;-66
2023/01/08 14:45:33;;;;;;;9.90;7.10;;;;;;;;;;5027406;28;20474;-66
2023/01/08 14:48:14;;;;;;;5.13;3.35;;;;;;;;;;5027933;28;20048;-66